sensor_id;sensor_type;location;lat;lon;timestamp;P1;durP1;ratioP1;P2;durP2;ratioP2
21326;SDS011;10822;51.532;6.770;2023-07-28T00:01:08;2.42;;;1.83;;
21326;SDS011;10822;51.532;6.770;2023-07-28T00:03:34;2.65;;;1.92;;
21326;SDS011;10822;51.532;6.770;2023-07-28T00:06:00;3.08;;;1.92;;
21326;SDS011;10822;51.532;6.770;2023-07-28T00:08:26;2.58;;;1.90;;
21326;SDS011;10822;51.532;6.770;2023-07-28T00:10:52;2.10;;;1.90;;
21326;SDS011;10822;51.532;6.770;2023-07-28T00:13:18;2.83;;;2.03;;
21326;SDS011;10822;51.532;6.770;2023-07-28T00:15:44;3.33;;;1.95;;
21326;SDS011;10822;51.532;6.770;2023-07-28T00:18:10;5.22;;;2.08;;
21326;SDS011;10822;51.532;6.770;2023-07-28T00:20:36;4.38;;;1.90;;
21326;SDS011;10822;51.532;6.770;2023-07-28T00:23:03;3.10;;;1.73;;
21326;SDS011;10822;51.532;6.770;2023-07-28T00:25:29;2.70;;;2.05;;
21326;SDS011;10822;51.532;6.770;2023-07-28T00:27:55;1.90;;;1.70;;
21326;SDS011;10822;51.532;6.770;2023-07-28T00:30:21;5.18;;;2.08;;
21326;SDS011;10822;51.532;6.770;2023-07-28T00:32:48;2.35;;;2.00;;
21326;SDS011;10822;51.532;6.770;2023-07-28T00:35:14;4.30;;;2.10;;
21326;SDS011;10822;51.532;6.770;2023-07-28T00:37:40;4.10;;;2.33;;
21326;SDS011;10822;51.532;6.770;2023-07-28T00:40:06;3.25;;;2.70;;
21326;SDS011;10822;51.532;6.770;2023-07-28T00:42:32;5.97;;;2.55;;
21326;SDS011;10822;51.532;6.770;2023-07-28T00:44:58;4.03;;;2.40;;
21326;SDS011;10822;51.532;6.770;2023-07-28T00:47:24;4.13;;;2.30;;
21326;SDS011;10822;51.532;6.770;2023-07-28T00:49:50;4.35;;;2.97;;
21326;SDS011;10822;51.532;6.770;2023-07-28T00:52:16;3.15;;;2.47;;
21326;SDS011;10822;51.532;6.770;2023-07-28T00:54:42;4.20;;;2.85;;
21326;SDS011;10822;51.532;6.770;2023-07-28T00:57:08;3.58;;;2.88;;
21326;SDS011;10822;51.532;6.770;2023-07-28T00:59:34;4.38;;;2.90;;
21326;SDS011;10822;51.532;6.770;2023-07-28T01:02:00;6.78;;;3.38;;
21326;SDS011;10822;51.532;6.770;2023-07-28T01:04:26;4.57;;;2.75;;
21326;SDS011;10822;51.532;6.770;2023-07-28T01:07:09;4.45;;;2.88;;
21326;SDS011;10822;51.532;6.770;2023-07-28T01:09:52;3.83;;;2.67;;
21326;SDS011;10822;51.532;6.770;2023-07-28T01:12:21;4.05;;;2.72;;
21326;SDS011;10822;51.532;6.770;2023-07-28T01:14:49;5.18;;;2.83;;
21326;SDS011;10822;51.532;6.770;2023-07-28T01:17:15;3.95;;;2.58;;
21326;SDS011;10822;51.532;6.770;2023-07-28T01:19:41;3.22;;;2.67;;
21326;SDS011;10822;51.532;6.770;2023-07-28T01:22:18;5.20;;;2.95;;
21326;SDS011;10822;51.532;6.770;2023-07-28T01:24:51;4.05;;;3.28;;
21326;SDS011;10822;51.532;6.770;2023-07-28T01:27:19;5.20;;;2.90;;
21326;SDS011;10822;51.532;6.770;2023-07-28T01:29:46;4.03;;;2.80;;
21326;SDS011;10822;51.532;6.770;2023-07-28T01:32:12;4.18;;;3.40;;
21326;SDS011;10822;51.532;6.770;2023-07-28T01:34:38;4.10;;;2.72;;
21326;SDS011;10822;51.532;6.770;2023-07-28T01:37:04;4.15;;;2.85;;
21326;SDS011;10822;51.532;6.770;2023-07-28T01:39:30;3.72;;;2.53;;
21326;SDS011;10822;51.532;6.770;2023-07-28T01:41:56;4.07;;;2.60;;
21326;SDS011;10822;51.532;6.770;2023-07-28T01:44:23;4.50;;;2.80;;
21326;SDS011;10822;51.532;6.770;2023-07-28T01:46:49;5.20;;;3.00;;
21326;SDS011;10822;51.532;6.770;2023-07-28T01:49:15;3.95;;;2.85;;
21326;SDS011;10822;51.532;6.770;2023-07-28T01:51:41;4.20;;;2.83;;
21326;SDS011;10822;51.532;6.770;2023-07-28T01:54:06;5.60;;;2.90;;
21326;SDS011;10822;51.532;6.770;2023-07-28T01:56:32;5.90;;;3.03;;
21326;SDS011;10822;51.532;6.770;2023-07-28T01:58:58;6.50;;;3.30;;
21326;SDS011;10822;51.532;6.770;2023-07-28T02:01:24;6.45;;;2.90;;
21326;SDS011;10822;51.532;6.770;2023-07-28T02:03:50;7.60;;;3.40;;
21326;SDS011;10822;51.532;6.770;2023-07-28T02:06:16;6.63;;;3.42;;
21326;SDS011;10822;51.532;6.770;2023-07-28T02:08:42;6.70;;;3.20;;
21326;SDS011;10822;51.532;6.770;2023-07-28T02:11:08;3.65;;;2.90;;
21326;SDS011;10822;51.532;6.770;2023-07-28T02:13:34;5.47;;;3.78;;
21326;SDS011;10822;51.532;6.770;2023-07-28T02:16:00;6.10;;;3.22;;
21326;SDS011;10822;51.532;6.770;2023-07-28T02:18:26;7.45;;;3.40;;
21326;SDS011;10822;51.532;6.770;2023-07-28T02:20:52;4.20;;;3.45;;
21326;SDS011;10822;51.532;6.770;2023-07-28T02:23:19;5.40;;;3.92;;
21326;SDS011;10822;51.532;6.770;2023-07-28T02:25:45;3.75;;;3.45;;
21326;SDS011;10822;51.532;6.770;2023-07-28T02:28:11;4.10;;;3.38;;
21326;SDS011;10822;51.532;6.770;2023-07-28T02:30:37;4.38;;;3.97;;
21326;SDS011;10822;51.532;6.770;2023-07-28T02:33:03;4.03;;;3.70;;
21326;SDS011;10822;51.532;6.770;2023-07-28T02:35:30;5.15;;;3.75;;
21326;SDS011;10822;51.532;6.770;2023-07-28T02:37:57;5.07;;;3.80;;
21326;SDS011;10822;51.532;6.770;2023-07-28T02:40:23;6.80;;;3.95;;
21326;SDS011;10822;51.532;6.770;2023-07-28T02:42:49;4.38;;;3.95;;
21326;SDS011;10822;51.532;6.770;2023-07-28T02:45:15;4.80;;;3.40;;
21326;SDS011;10822;51.532;6.770;2023-07-28T02:47:41;5.45;;;3.80;;
21326;SDS011;10822;51.532;6.770;2023-07-28T02:50:07;5.07;;;3.83;;
21326;SDS011;10822;51.532;6.770;2023-07-28T02:52:33;5.82;;;3.47;;
21326;SDS011;10822;51.532;6.770;2023-07-28T02:54:59;3.53;;;3.22;;
21326;SDS011;10822;51.532;6.770;2023-07-28T02:57:25;3.58;;;3.25;;
21326;SDS011;10822;51.532;6.770;2023-07-28T02:59:51;5.00;;;3.70;;
21326;SDS011;10822;51.532;6.770;2023-07-28T03:02:17;5.22;;;3.55;;
21326;SDS011;10822;51.532;6.770;2023-07-28T03:04:43;4.93;;;3.92;;
21326;SDS011;10822;51.532;6.770;2023-07-28T03:07:09;4.65;;;3.47;;
21326;SDS011;10822;51.532;6.770;2023-07-28T03:09:35;3.67;;;2.85;;
21326;SDS011;10822;51.532;6.770;2023-07-28T03:12:01;4.55;;;3.40;;
21326;SDS011;10822;51.532;6.770;2023-07-28T03:14:27;4.60;;;3.78;;
21326;SDS011;10822;51.532;6.770;2023-07-28T03:16:54;4.85;;;3.50;;
21326;SDS011;10822;51.532;6.770;2023-07-28T03:19:20;5.10;;;3.90;;
21326;SDS011;10822;51.532;6.770;2023-07-28T03:21:46;4.28;;;3.45;;
21326;SDS011;10822;51.532;6.770;2023-07-28T03:24:12;5.65;;;4.13;;
21326;SDS011;10822;51.532;6.770;2023-07-28T03:26:38;4.97;;;3.78;;
21326;SDS011;10822;51.532;6.770;2023-07-28T03:29:04;6.82;;;4.07;;
21326;SDS011;10822;51.532;6.770;2023-07-28T03:31:30;9.48;;;4.65;;
21326;SDS011;10822;51.532;6.770;2023-07-28T03:33:57;5.80;;;4.38;;
21326;SDS011;10822;51.532;6.770;2023-07-28T03:36:23;5.55;;;4.10;;
21326;SDS011;10822;51.532;6.770;2023-07-28T03:38:49;6.30;;;4.00;;
21326;SDS011;10822;51.532;6.770;2023-07-28T03:41:15;8.13;;;4.70;;
21326;SDS011;10822;51.532;6.770;2023-07-28T03:43:41;9.52;;;4.63;;
21326;SDS011;10822;51.532;6.770;2023-07-28T03:46:07;5.93;;;4.40;;
21326;SDS011;10822;51.532;6.770;2023-07-28T03:48:33;6.20;;;5.00;;
21326;SDS011;10822;51.532;6.770;2023-07-28T03:50:59;7.15;;;4.75;;
21326;SDS011;10822;51.532;6.770;2023-07-28T03:53:25;5.35;;;4.20;;
21326;SDS011;10822;51.532;6.770;2023-07-28T03:55:51;5.72;;;4.55;;
21326;SDS011;10822;51.532;6.770;2023-07-28T03:58:18;5.50;;;4.28;;
21326;SDS011;10822;51.532;6.770;2023-07-28T04:00:44;7.00;;;4.80;;
21326;SDS011;10822;51.532;6.770;2023-07-28T04:03:10;5.70;;;4.72;;
21326;SDS011;10822;51.532;6.770;2023-07-28T04:05:36;8.38;;;4.82;;
21326;SDS011;10822;51.532;6.770;2023-07-28T04:08:03;8.57;;;4.97;;
21326;SDS011;10822;51.532;6.770;2023-07-28T04:10:29;7.07;;;5.07;;
21326;SDS011;10822;51.532;6.770;2023-07-28T04:12:54;9.07;;;5.00;;
21326;SDS011;10822;51.532;6.770;2023-07-28T04:15:20;6.38;;;4.65;;
21326;SDS011;10822;51.532;6.770;2023-07-28T04:17:46;10.57;;;4.10;;
21326;SDS011;10822;51.532;6.770;2023-07-28T04:20:12;6.72;;;4.40;;
21326;SDS011;10822;51.532;6.770;2023-07-28T04:22:38;5.75;;;3.97;;
21326;SDS011;10822;51.532;6.770;2023-07-28T04:25:04;6.50;;;4.75;;
21326;SDS011;10822;51.532;6.770;2023-07-28T04:27:30;6.05;;;4.20;;
21326;SDS011;10822;51.532;6.770;2023-07-28T04:29:56;6.72;;;4.30;;
21326;SDS011;10822;51.532;6.770;2023-07-28T04:32:23;7.25;;;4.57;;
21326;SDS011;10822;51.532;6.770;2023-07-28T04:34:51;9.02;;;5.57;;
21326;SDS011;10822;51.532;6.770;2023-07-28T04:37:17;7.10;;;4.93;;
21326;SDS011;10822;51.532;6.770;2023-07-28T04:39:43;5.80;;;4.10;;
21326;SDS011;10822;51.532;6.770;2023-07-28T04:42:09;6.40;;;4.65;;
21326;SDS011;10822;51.532;6.770;2023-07-28T04:44:35;6.78;;;4.45;;
21326;SDS011;10822;51.532;6.770;2023-07-28T04:47:01;7.05;;;4.50;;
21326;SDS011;10822;51.532;6.770;2023-07-28T04:49:27;6.40;;;4.68;;
21326;SDS011;10822;51.532;6.770;2023-07-28T04:51:53;6.55;;;4.63;;
21326;SDS011;10822;51.532;6.770;2023-07-28T04:54:19;6.07;;;4.65;;
21326;SDS011;10822;51.532;6.770;2023-07-28T04:56:45;6.15;;;3.95;;
21326;SDS011;10822;51.532;6.770;2023-07-28T04:59:12;8.00;;;4.65;;
21326;SDS011;10822;51.532;6.770;2023-07-28T05:01:38;5.22;;;3.72;;
21326;SDS011;10822;51.532;6.770;2023-07-28T05:04:04;6.13;;;4.13;;
21326;SDS011;10822;51.532;6.770;2023-07-28T05:06:30;7.10;;;4.50;;
21326;SDS011;10822;51.532;6.770;2023-07-28T05:08:56;6.45;;;3.97;;
21326;SDS011;10822;51.532;6.770;2023-07-28T05:11:22;5.93;;;3.80;;
21326;SDS011;10822;51.532;6.770;2023-07-28T05:13:48;7.90;;;3.95;;
21326;SDS011;10822;51.532;6.770;2023-07-28T05:16:14;6.93;;;3.90;;
21326;SDS011;10822;51.532;6.770;2023-07-28T05:18:40;7.30;;;3.90;;
21326;SDS011;10822;51.532;6.770;2023-07-28T05:21:08;5.63;;;3.78;;
21326;SDS011;10822;51.532;6.770;2023-07-28T05:23:33;7.93;;;3.40;;
21326;SDS011;10822;51.532;6.770;2023-07-28T05:25:59;7.15;;;3.58;;
21326;SDS011;10822;51.532;6.770;2023-07-28T05:28:25;4.82;;;3.30;;
21326;SDS011;10822;51.532;6.770;2023-07-28T05:30:51;6.97;;;3.45;;
21326;SDS011;10822;51.532;6.770;2023-07-28T05:33:17;6.72;;;3.55;;
21326;SDS011;10822;51.532;6.770;2023-07-28T05:35:43;7.40;;;3.45;;
21326;SDS011;10822;51.532;6.770;2023-07-28T05:38:09;10.63;;;4.05;;
21326;SDS011;10822;51.532;6.770;2023-07-28T05:40:35;6.00;;;3.20;;
21326;SDS011;10822;51.532;6.770;2023-07-28T05:43:01;5.93;;;3.78;;
21326;SDS011;10822;51.532;6.770;2023-07-28T05:45:28;6.88;;;4.13;;
21326;SDS011;10822;51.532;6.770;2023-07-28T05:47:53;7.03;;;4.50;;
21326;SDS011;10822;51.532;6.770;2023-07-28T05:50:19;7.00;;;4.28;;
21326;SDS011;10822;51.532;6.770;2023-07-28T05:52:46;6.78;;;3.92;;
21326;SDS011;10822;51.532;6.770;2023-07-28T05:55:12;7.80;;;5.10;;
21326;SDS011;10822;51.532;6.770;2023-07-28T05:57:38;10.48;;;5.10;;
21326;SDS011;10822;51.532;6.770;2023-07-28T06:00:04;8.90;;;4.43;;
21326;SDS011;10822;51.532;6.770;2023-07-28T06:02:34;7.00;;;5.15;;
21326;SDS011;10822;51.532;6.770;2023-07-28T06:05:00;10.10;;;5.43;;
21326;SDS011;10822;51.532;6.770;2023-07-28T06:07:26;9.13;;;5.30;;
21326;SDS011;10822;51.532;6.770;2023-07-28T06:09:52;5.72;;;4.35;;
21326;SDS011;10822;51.532;6.770;2023-07-28T06:12:18;10.57;;;5.47;;
21326;SDS011;10822;51.532;6.770;2023-07-28T06:14:44;11.77;;;6.00;;
21326;SDS011;10822;51.532;6.770;2023-07-28T06:17:10;9.88;;;6.03;;
21326;SDS011;10822;51.532;6.770;2023-07-28T06:19:36;10.20;;;5.40;;
21326;SDS011;10822;51.532;6.770;2023-07-28T06:22:02;9.98;;;6.85;;
21326;SDS011;10822;51.532;6.770;2023-07-28T06:24:29;11.07;;;6.65;;
21326;SDS011;10822;51.532;6.770;2023-07-28T06:26:55;8.98;;;6.93;;
21326;SDS011;10822;51.532;6.770;2023-07-28T06:29:21;9.10;;;6.40;;
21326;SDS011;10822;51.532;6.770;2023-07-28T06:31:47;9.23;;;6.60;;
21326;SDS011;10822;51.532;6.770;2023-07-28T06:34:13;13.82;;;6.53;;
21326;SDS011;10822;51.532;6.770;2023-07-28T06:36:39;8.75;;;5.85;;
21326;SDS011;10822;51.532;6.770;2023-07-28T06:39:05;10.27;;;6.68;;
21326;SDS011;10822;51.532;6.770;2023-07-28T06:41:31;9.85;;;6.82;;
21326;SDS011;10822;51.532;6.770;2023-07-28T06:43:57;8.80;;;6.63;;
21326;SDS011;10822;51.532;6.770;2023-07-28T06:46:23;10.00;;;6.38;;
21326;SDS011;10822;51.532;6.770;2023-07-28T06:48:49;11.93;;;6.90;;
21326;SDS011;10822;51.532;6.770;2023-07-28T06:51:15;10.05;;;6.90;;
21326;SDS011;10822;51.532;6.770;2023-07-28T06:53:41;10.93;;;6.78;;
21326;SDS011;10822;51.532;6.770;2023-07-28T06:56:06;9.88;;;6.63;;
21326;SDS011;10822;51.532;6.770;2023-07-28T06:58:32;11.55;;;6.82;;
21326;SDS011;10822;51.532;6.770;2023-07-28T07:00:58;9.10;;;6.32;;
21326;SDS011;10822;51.532;6.770;2023-07-28T07:03:24;9.40;;;6.47;;
21326;SDS011;10822;51.532;6.770;2023-07-28T07:05:50;10.15;;;6.53;;
21326;SDS011;10822;51.532;6.770;2023-07-28T07:08:16;11.73;;;6.80;;
21326;SDS011;10822;51.532;6.770;2023-07-28T07:10:49;11.55;;;6.65;;
21326;SDS011;10822;51.532;6.770;2023-07-28T07:13:15;11.40;;;6.85;;
21326;SDS011;10822;51.532;6.770;2023-07-28T07:15:41;11.05;;;6.95;;
21326;SDS011;10822;51.532;6.770;2023-07-28T07:18:07;13.10;;;6.97;;
21326;SDS011;10822;51.532;6.770;2023-07-28T07:20:34;13.73;;;7.45;;
21326;SDS011;10822;51.532;6.770;2023-07-28T07:23:00;11.50;;;7.25;;
21326;SDS011;10822;51.532;6.770;2023-07-28T07:25:26;11.40;;;7.90;;
21326;SDS011;10822;51.532;6.770;2023-07-28T07:27:52;11.25;;;7.55;;
21326;SDS011;10822;51.532;6.770;2023-07-28T07:30:18;11.52;;;7.05;;
21326;SDS011;10822;51.532;6.770;2023-07-28T07:32:44;12.52;;;7.85;;
21326;SDS011;10822;51.532;6.770;2023-07-28T07:35:10;13.52;;;7.57;;
21326;SDS011;10822;51.532;6.770;2023-07-28T07:37:37;11.70;;;7.65;;
21326;SDS011;10822;51.532;6.770;2023-07-28T07:40:03;11.85;;;7.22;;
21326;SDS011;10822;51.532;6.770;2023-07-28T07:42:40;11.48;;;7.32;;
21326;SDS011;10822;51.532;6.770;2023-07-28T07:45:07;12.43;;;8.07;;
21326;SDS011;10822;51.532;6.770;2023-07-28T07:47:33;11.38;;;7.55;;
21326;SDS011;10822;51.532;6.770;2023-07-28T07:49:59;10.32;;;7.53;;
21326;SDS011;10822;51.532;6.770;2023-07-28T07:52:25;10.70;;;7.20;;
21326;SDS011;10822;51.532;6.770;2023-07-28T07:54:51;11.48;;;7.68;;
21326;SDS011;10822;51.532;6.770;2023-07-28T07:57:17;13.27;;;7.43;;
21326;SDS011;10822;51.532;6.770;2023-07-28T07:59:43;11.18;;;7.10;;
21326;SDS011;10822;51.532;6.770;2023-07-28T08:02:09;10.57;;;7.25;;
21326;SDS011;10822;51.532;6.770;2023-07-28T08:04:35;11.15;;;7.25;;
21326;SDS011;10822;51.532;6.770;2023-07-28T08:07:01;14.05;;;7.85;;
21326;SDS011;10822;51.532;6.770;2023-07-28T08:09:29;10.80;;;6.82;;
21326;SDS011;10822;51.532;6.770;2023-07-28T08:11:55;9.18;;;6.50;;
21326;SDS011;10822;51.532;6.770;2023-07-28T08:14:21;9.75;;;6.38;;
21326;SDS011;10822;51.532;6.770;2023-07-28T08:16:47;8.80;;;5.80;;
21326;SDS011;10822;51.532;6.770;2023-07-28T08:19:13;9.52;;;6.22;;
21326;SDS011;10822;51.532;6.770;2023-07-28T08:21:39;8.07;;;6.30;;
21326;SDS011;10822;51.532;6.770;2023-07-28T08:24:05;8.38;;;5.95;;
21326;SDS011;10822;51.532;6.770;2023-07-28T08:26:31;9.90;;;6.53;;
21326;SDS011;10822;51.532;6.770;2023-07-28T08:28:57;8.50;;;6.15;;
21326;SDS011;10822;51.532;6.770;2023-07-28T08:31:23;8.70;;;5.63;;
21326;SDS011;10822;51.532;6.770;2023-07-28T08:33:49;6.82;;;5.05;;
21326;SDS011;10822;51.532;6.770;2023-07-28T08:36:15;8.10;;;5.30;;
21326;SDS011;10822;51.532;6.770;2023-07-28T08:38:41;7.82;;;4.60;;
21326;SDS011;10822;51.532;6.770;2023-07-28T08:41:09;6.03;;;4.60;;
21326;SDS011;10822;51.532;6.770;2023-07-28T08:43:35;6.25;;;4.70;;
21326;SDS011;10822;51.532;6.770;2023-07-28T08:46:01;5.05;;;3.60;;
21326;SDS011;10822;51.532;6.770;2023-07-28T08:48:28;5.05;;;3.45;;
21326;SDS011;10822;51.532;6.770;2023-07-28T08:50:54;5.40;;;3.72;;
21326;SDS011;10822;51.532;6.770;2023-07-28T08:53:20;4.10;;;3.55;;
21326;SDS011;10822;51.532;6.770;2023-07-28T08:55:47;6.03;;;3.75;;
21326;SDS011;10822;51.532;6.770;2023-07-28T08:58:14;3.35;;;2.80;;
21326;SDS011;10822;51.532;6.770;2023-07-28T09:00:40;4.03;;;2.63;;
21326;SDS011;10822;51.532;6.770;2023-07-28T09:03:09;3.15;;;2.65;;
21326;SDS011;10822;51.532;6.770;2023-07-28T09:05:36;3.67;;;2.35;;
21326;SDS011;10822;51.532;6.770;2023-07-28T09:08:05;3.35;;;2.30;;
21326;SDS011;10822;51.532;6.770;2023-07-28T09:10:47;4.07;;;2.20;;
21326;SDS011;10822;51.532;6.770;2023-07-28T09:13:16;2.70;;;2.05;;
21326;SDS011;10822;51.532;6.770;2023-07-28T09:15:43;2.67;;;2.35;;
21326;SDS011;10822;51.532;6.770;2023-07-28T09:18:09;2.63;;;2.13;;
21326;SDS011;10822;51.532;6.770;2023-07-28T09:20:39;1.83;;;1.65;;
21326;SDS011;10822;51.532;6.770;2023-07-28T09:23:06;2.05;;;1.65;;
21326;SDS011;10822;51.532;6.770;2023-07-28T09:25:33;2.55;;;1.52;;
21326;SDS011;10822;51.532;6.770;2023-07-28T09:27:59;1.83;;;1.50;;
21326;SDS011;10822;51.532;6.770;2023-07-28T09:30:26;2.00;;;1.80;;
21326;SDS011;10822;51.532;6.770;2023-07-28T09:32:52;1.85;;;1.40;;
21326;SDS011;10822;51.532;6.770;2023-07-28T09:35:19;1.45;;;1.35;;
21326;SDS011;10822;51.532;6.770;2023-07-28T09:37:47;2.10;;;1.40;;
21326;SDS011;10822;51.532;6.770;2023-07-28T09:40:15;1.50;;;1.40;;
21326;SDS011;10822;51.532;6.770;2023-07-28T09:42:42;1.30;;;1.20;;
21326;SDS011;10822;51.532;6.770;2023-07-28T09:45:09;2.13;;;1.58;;
21326;SDS011;10822;51.532;6.770;2023-07-28T09:47:36;3.50;;;1.42;;
21326;SDS011;10822;51.532;6.770;2023-07-28T09:50:03;3.92;;;1.58;;
21326;SDS011;10822;51.532;6.770;2023-07-28T09:52:39;1.42;;;1.33;;
21326;SDS011;10822;51.532;6.770;2023-07-28T09:55:07;2.10;;;1.67;;
21326;SDS011;10822;51.532;6.770;2023-07-28T09:57:52;2.22;;;2.00;;
21326;SDS011;10822;51.532;6.770;2023-07-28T10:00:20;2.10;;;1.65;;
21326;SDS011;10822;51.532;6.770;2023-07-28T10:02:47;2.22;;;1.88;;
21326;SDS011;10822;51.532;6.770;2023-07-28T10:05:13;2.05;;;1.85;;
21326;SDS011;10822;51.532;6.770;2023-07-28T10:07:40;2.55;;;2.05;;
21326;SDS011;10822;51.532;6.770;2023-07-28T10:10:07;2.78;;;2.30;;
21326;SDS011;10822;51.532;6.770;2023-07-28T10:12:41;2.60;;;2.08;;
21326;SDS011;10822;51.532;6.770;2023-07-28T10:15:07;2.55;;;2.00;;
21326;SDS011;10822;51.532;6.770;2023-07-28T10:17:37;2.90;;;2.65;;
21326;SDS011;10822;51.532;6.770;2023-07-28T10:20:06;3.15;;;2.10;;
21326;SDS011;10822;51.532;6.770;2023-07-28T10:22:42;2.92;;;2.50;;
21326;SDS011;10822;51.532;6.770;2023-07-28T10:25:09;4.70;;;2.55;;
21326;SDS011;10822;51.532;6.770;2023-07-28T10:27:40;3.25;;;2.50;;
21326;SDS011;10822;51.532;6.770;2023-07-28T10:30:10;6.82;;;2.60;;
21326;SDS011;10822;51.532;6.770;2023-07-28T10:32:37;4.00;;;2.63;;
21326;SDS011;10822;51.532;6.770;2023-07-28T10:35:08;2.60;;;2.40;;
21326;SDS011;10822;51.532;6.770;2023-07-28T10:37:36;3.72;;;2.50;;
21326;SDS011;10822;51.532;6.770;2023-07-28T10:42:48;2.80;;;2.55;;
21326;SDS011;10822;51.532;6.770;2023-07-28T10:45:14;2.53;;;2.33;;
21326;SDS011;10822;51.532;6.770;2023-07-28T10:47:41;2.35;;;2.15;;
21326;SDS011;10822;51.532;6.770;2023-07-28T10:50:10;2.90;;;2.60;;
21326;SDS011;10822;51.532;6.770;2023-07-28T10:52:43;3.05;;;2.38;;
21326;SDS011;10822;51.532;6.770;2023-07-28T10:55:22;2.17;;;1.98;;
21326;SDS011;10822;51.532;6.770;2023-07-28T10:57:49;2.40;;;2.20;;
21326;SDS011;10822;51.532;6.770;2023-07-28T11:00:16;2.88;;;2.17;;
21326;SDS011;10822;51.532;6.770;2023-07-28T11:05:09;2.50;;;2.05;;
21326;SDS011;10822;51.532;6.770;2023-07-28T11:07:37;2.45;;;2.10;;
21326;SDS011;10822;51.532;6.770;2023-07-28T11:10:03;3.50;;;2.60;;
21326;SDS011;10822;51.532;6.770;2023-07-28T11:12:31;3.10;;;1.90;;
21326;SDS011;10822;51.532;6.770;2023-07-28T11:14:57;3.60;;;2.15;;
21326;SDS011;10822;51.532;6.770;2023-07-28T11:17:23;3.47;;;1.85;;
21326;SDS011;10822;51.532;6.770;2023-07-28T11:19:50;3.00;;;2.00;;
21326;SDS011;10822;51.532;6.770;2023-07-28T11:22:16;5.57;;;1.60;;
21326;SDS011;10822;51.532;6.770;2023-07-28T11:24:42;2.70;;;1.70;;
21326;SDS011;10822;51.532;6.770;2023-07-28T11:27:10;1.73;;;1.60;;
21326;SDS011;10822;51.532;6.770;2023-07-28T11:29:36;2.30;;;2.00;;
21326;SDS011;10822;51.532;6.770;2023-07-28T11:32:02;5.45;;;1.52;;
21326;SDS011;10822;51.532;6.770;2023-07-28T11:34:28;1.48;;;1.20;;
21326;SDS011;10822;51.532;6.770;2023-07-28T11:37:00;1.23;;;1.13;;
21326;SDS011;10822;51.532;6.770;2023-07-28T11:39:26;1.35;;;0.80;;
21326;SDS011;10822;51.532;6.770;2023-07-28T11:41:52;1.20;;;0.95;;
21326;SDS011;10822;51.532;6.770;2023-07-28T11:44:19;1.80;;;1.10;;
21326;SDS011;10822;51.532;6.770;2023-07-28T11:46:45;1.33;;;0.80;;
21326;SDS011;10822;51.532;6.770;2023-07-28T11:49:18;1.20;;;0.93;;
21326;SDS011;10822;51.532;6.770;2023-07-28T11:51:47;0.85;;;0.85;;
21326;SDS011;10822;51.532;6.770;2023-07-28T11:54:14;0.80;;;0.65;;
21326;SDS011;10822;51.532;6.770;2023-07-28T11:56:44;0.98;;;0.88;;
21326;SDS011;10822;51.532;6.770;2023-07-28T11:59:10;0.90;;;0.90;;
21326;SDS011;10822;51.532;6.770;2023-07-28T12:01:52;3.22;;;1.50;;
21326;SDS011;10822;51.532;6.770;2023-07-28T12:04:20;2.60;;;0.70;;
21326;SDS011;10822;51.532;6.770;2023-07-28T12:12:17;1.35;;;0.70;;
21326;SDS011;10822;51.532;6.770;2023-07-28T12:14:43;1.23;;;0.50;;
21326;SDS011;10822;51.532;6.770;2023-07-28T12:17:12;0.77;;;0.30;;
21326;SDS011;10822;51.532;6.770;2023-07-28T12:22:23;1.67;;;0.40;;
21326;SDS011;10822;51.532;6.770;2023-07-28T12:24:49;0.80;;;0.40;;
21326;SDS011;10822;51.532;6.770;2023-07-28T12:27:15;1.15;;;0.38;;
21326;SDS011;10822;51.532;6.770;2023-07-28T12:29:41;0.95;;;0.40;;
21326;SDS011;10822;51.532;6.770;2023-07-28T12:32:07;2.35;;;0.60;;
21326;SDS011;10822;51.532;6.770;2023-07-28T12:34:33;0.47;;;0.45;;
21326;SDS011;10822;51.532;6.770;2023-07-28T12:36:59;0.40;;;0.40;;
21326;SDS011;10822;51.532;6.770;2023-07-28T12:39:25;2.97;;;0.52;;
21326;SDS011;10822;51.532;6.770;2023-07-28T12:41:51;0.65;;;0.40;;
21326;SDS011;10822;51.532;6.770;2023-07-28T12:44:20;0.55;;;0.55;;
21326;SDS011;10822;51.532;6.770;2023-07-28T12:46:46;1.63;;;0.60;;
21326;SDS011;10822;51.532;6.770;2023-07-28T12:49:12;1.23;;;0.50;;
21326;SDS011;10822;51.532;6.770;2023-07-28T12:51:39;0.30;;;0.30;;
21326;SDS011;10822;51.532;6.770;2023-07-28T12:54:06;0.80;;;0.50;;
21326;SDS011;10822;51.532;6.770;2023-07-28T12:56:32;0.50;;;0.50;;
21326;SDS011;10822;51.532;6.770;2023-07-28T12:58:58;1.42;;;0.68;;
21326;SDS011;10822;51.532;6.770;2023-07-28T13:01:24;0.80;;;0.40;;
21326;SDS011;10822;51.532;6.770;2023-07-28T13:03:50;0.55;;;0.55;;
21326;SDS011;10822;51.532;6.770;2023-07-28T13:06:16;0.40;;;0.40;;
21326;SDS011;10822;51.532;6.770;2023-07-28T13:08:42;0.40;;;0.40;;
21326;SDS011;10822;51.532;6.770;2023-07-28T13:11:08;0.50;;;0.40;;
21326;SDS011;10822;51.532;6.770;2023-07-28T13:13:34;0.43;;;0.40;;
21326;SDS011;10822;51.532;6.770;2023-07-28T13:16:00;1.17;;;0.50;;
21326;SDS011;10822;51.532;6.770;2023-07-28T13:18:26;0.57;;;0.40;;
21326;SDS011;10822;51.532;6.770;2023-07-28T13:20:52;0.38;;;0.30;;
21326;SDS011;10822;51.532;6.770;2023-07-28T13:23:18;1.75;;;0.50;;
21326;SDS011;10822;51.532;6.770;2023-07-28T13:25:44;6.85;;;0.60;;
21326;SDS011;10822;51.532;6.770;2023-07-28T13:28:10;0.30;;;0.30;;
21326;SDS011;10822;51.532;6.770;2023-07-28T13:30:36;1.08;;;0.35;;
21326;SDS011;10822;51.532;6.770;2023-07-28T13:33:02;0.38;;;0.35;;
21326;SDS011;10822;51.532;6.770;2023-07-28T13:35:30;0.55;;;0.40;;
21326;SDS011;10822;51.532;6.770;2023-07-28T13:37:56;1.25;;;0.50;;
21326;SDS011;10822;51.532;6.770;2023-07-28T13:40:22;1.27;;;0.40;;
21326;SDS011;10822;51.532;6.770;2023-07-28T13:42:48;0.80;;;0.60;;
21326;SDS011;10822;51.532;6.770;2023-07-28T13:45:14;2.47;;;0.65;;
21326;SDS011;10822;51.532;6.770;2023-07-28T13:47:40;2.25;;;0.52;;
21326;SDS011;10822;51.532;6.770;2023-07-28T13:50:06;0.47;;;0.40;;
21326;SDS011;10822;51.532;6.770;2023-07-28T13:52:32;1.17;;;0.50;;
21326;SDS011;10822;51.532;6.770;2023-07-28T13:54:58;0.50;;;0.47;;
21326;SDS011;10822;51.532;6.770;2023-07-28T13:57:24;0.40;;;0.40;;
21326;SDS011;10822;51.532;6.770;2023-07-28T13:59:50;0.40;;;0.40;;
21326;SDS011;10822;51.532;6.770;2023-07-28T14:02:16;0.40;;;0.40;;
21326;SDS011;10822;51.532;6.770;2023-07-28T14:04:43;0.40;;;0.40;;
21326;SDS011;10822;51.532;6.770;2023-07-28T14:07:09;0.50;;;0.50;;
21326;SDS011;10822;51.532;6.770;2023-07-28T14:09:35;1.25;;;0.73;;
21326;SDS011;10822;51.532;6.770;2023-07-28T14:12:03;0.47;;;0.40;;
21326;SDS011;10822;51.532;6.770;2023-07-28T14:14:29;0.38;;;0.38;;
21326;SDS011;10822;51.532;6.770;2023-07-28T14:16:54;0.52;;;0.52;;
21326;SDS011;10822;51.532;6.770;2023-07-28T14:19:20;1.67;;;0.90;;
21326;SDS011;10822;51.532;6.770;2023-07-28T14:21:46;0.95;;;0.50;;
21326;SDS011;10822;51.532;6.770;2023-07-28T14:24:12;0.55;;;0.50;;
21326;SDS011;10822;51.532;6.770;2023-07-28T14:26:38;0.65;;;0.40;;
21326;SDS011;10822;51.532;6.770;2023-07-28T14:29:04;0.82;;;0.75;;
21326;SDS011;10822;51.532;6.770;2023-07-28T14:31:31;1.65;;;0.70;;
21326;SDS011;10822;51.532;6.770;2023-07-28T14:33:57;0.57;;;0.57;;
21326;SDS011;10822;51.532;6.770;2023-07-28T14:36:23;1.17;;;0.60;;
21326;SDS011;10822;51.532;6.770;2023-07-28T14:38:49;1.40;;;0.55;;
21326;SDS011;10822;51.532;6.770;2023-07-28T14:41:15;1.38;;;0.50;;
21326;SDS011;10822;51.532;6.770;2023-07-28T14:43:41;0.88;;;0.52;;
21326;SDS011;10822;51.532;6.770;2023-07-28T14:46:07;1.27;;;0.50;;
21326;SDS011;10822;51.532;6.770;2023-07-28T14:48:33;1.40;;;0.55;;
21326;SDS011;10822;51.532;6.770;2023-07-28T14:51:00;0.60;;;0.40;;
21326;SDS011;10822;51.532;6.770;2023-07-28T14:53:29;0.80;;;0.60;;
21326;SDS011;10822;51.532;6.770;2023-07-28T14:55:55;0.65;;;0.63;;